Time;durP1;ratioP1;P1;durP2;ratioP2;P2;SDS_P1;SDS_P2;PMS_P1;PMS_P2;Temp;Humidity;BMP_temperature;BMP_pressure;BME280_temperature;BME280_humidity;BME280_pressure;Samples;Min_cycle;Max_cycle;Signal;HPM_P1;HPM_P2
2022/05/23 00:00:05;;;;;;;5.87;2.77;;;14.30;97.30;;;;;;5107545;28;20620;-59
2022/05/23 00:02:31;;;;;;;4.57;3.17;;;14.30;97.60;;;;;;5112242;27;20466;-60
2022/05/23 00:04:57;;;;;;;3.20;2.70;;;14.20;97.90;;;;;;5114233;27;20485;-59
2022/05/23 00:07:30;;;;;;;4.00;2.80;;;14.20;98.40;;;;;;5112690;28;20170;-60
2022/05/23 00:09:56;;;;;;;4.10;2.70;;;14.20;98.80;;;;;;5102811;28;20189;-60
2022/05/23 00:12:22;;;;;;;2.90;2.60;;;14.10;99.20;;;;;;5106555;27;20458;-60
2022/05/23 00:14:50;;;;;;;10.23;3.10;;;14.10;99.60;;;;;;5110708;28;20200;-59
2022/05/23 00:17:16;;;;;;;5.40;3.90;;;14.10;99.80;;;;;;5111977;28;20415;-60
2022/05/23 00:19:42;;;;;;;3.00;2.80;;;14.10;99.80;;;;;;5110069;28;20431;-59
2022/05/23 00:22:08;;;;;;;3.90;2.90;;;14.10;99.90;;;;;;5109460;28;20526;-61
2022/05/23 00:24:34;;;;;;;4.53;2.90;;;14.00;99.70;;;;;;5110990;28;20835;-59
2022/05/23 00:27:00;;;;;;;3.60;2.77;;;14.00;99.90;;;;;;5110215;28;20957;-60
2022/05/23 00:29:25;;;;;;;2.80;2.60;;;14.00;99.90;;;;;;5111170;28;20185;-60
2022/05/23 00:37:22;;;;;;;8.60;2.70;;;13.90;99.20;;;;;;5119430;27;20418;-60
2022/05/23 00:39:47;;;;;;;3.17;2.83;;;13.90;99.70;;;;;;5112652;27;20522;-59
2022/05/23 00:45:02;;;;;;;3.17;2.97;;;13.80;99.90;;;;;;5101740;28;20258;-60
2022/05/23 00:47:29;;;;;;;3.70;2.97;;;13.80;99.90;;;;;;5111393;28;20449;-60
2022/05/23 00:49:55;;;;;;;5.43;2.87;;;13.80;99.90;;;;;;5114256;27;20437;-59
2022/05/23 00:52:42;;;;;;;4.10;3.30;;;13.70;99.90;;;;;;5112556;27;20458;-59
2022/05/23 00:55:15;;;;;;;4.03;3.10;;;13.70;99.90;;;;;;5108451;28;20518;-59
2022/05/23 00:57:45;;;;;;;4.10;2.83;;;13.70;99.90;;;;;;5117009;27;20804;-60
2022/05/23 01:00:12;;;;;;;4.00;2.80;;;13.60;99.90;;;;;;5106371;28;20423;-59
2022/05/23 01:02:39;;;;;;;3.90;3.13;;;13.60;99.90;;;;;;5109508;27;20854;-59
2022/05/23 01:05:06;;;;;;;2.80;2.60;;;13.60;99.90;;;;;;5116845;27;20434;-61
2022/05/23 01:07:32;;;;;;;2.80;2.60;;;13.60;99.90;;;;;;5111494;27;20430;-58
2022/05/23 01:09:58;;;;;;;4.07;3.10;;;13.60;99.90;;;;;;5108477;27;20430;-61
2022/05/23 01:12:25;;;;;;;3.57;2.93;;;13.60;99.90;;;;;;5113107;27;20465;-59
2022/05/23 01:14:54;;;;;;;4.90;3.00;;;13.60;99.90;;;;;;5086123;28;20197;-60
2022/05/23 01:17:22;;;;;;;4.40;2.77;;;13.60;99.90;;;;;;5105886;28;20424;-59
2022/05/23 01:19:48;;;;;;;4.77;3.10;;;13.50;99.90;;;;;;5094686;28;20952;-60
2022/05/23 01:22:23;;;;;;;3.27;2.87;;;13.50;99.90;;;;;;5110597;27;20446;-59
2022/05/23 01:24:57;;;;;;;2.97;2.53;;;13.40;99.90;;;;;;5108205;28;20456;-59
2022/05/23 01:27:24;;;;;;;3.27;2.87;;;13.40;99.90;;;;;;5110664;27;20433;-60
2022/05/23 01:29:49;;;;;;;2.83;2.63;;;13.40;99.90;;;;;;5108845;28;20426;-60
2022/05/23 01:32:15;;;;;;;4.30;2.70;;;13.40;99.90;;;;;;5110346;27;20462;-59
2022/05/23 01:34:43;;;;;;;4.23;3.20;;;13.40;99.90;;;;;;5103988;28;20283;-59
2022/05/23 01:37:08;;;;;;;6.20;3.10;;;13.40;99.90;;;;;;5106706;27;20662;-58
2022/05/23 01:39:34;;;;;;;2.97;2.77;;;13.40;99.90;;;;;;5105461;27;20423;-60
2022/05/23 01:42:00;;;;;;;3.40;3.07;;;13.40;99.90;;;;;;5105068;28;20268;-59
2022/05/23 01:44:28;;;;;;;3.17;2.90;;;13.40;99.90;;;;;;5107730;27;20715;-60
2022/05/23 01:46:53;;;;;;;7.50;3.23;;;13.40;99.90;;;;;;5106281;28;20634;-60
2022/05/23 01:49:20;;;;;;;5.40;3.10;;;13.40;99.90;;;;;;5110619;28;20568;-60
2022/05/23 01:51:46;;;;;;;4.40;3.33;;;13.40;99.90;;;;;;5106071;27;20293;-58
2022/05/23 01:54:12;;;;;;;3.67;2.80;;;13.40;99.90;;;;;;5104804;27;20539;-60
2022/05/23 01:56:38;;;;;;;5.00;3.80;;;13.40;99.90;;;;;;5093285;27;20173;-60
2022/05/23 02:01:48;;;;;;;3.30;3.00;;;13.40;99.90;;;;;;5110855;28;20421;-59
2022/05/23 02:04:14;;;;;;;4.53;3.00;;;13.50;99.90;;;;;;5115295;27;20450;-59
2022/05/23 02:06:39;;;;;;;6.00;2.77;;;13.50;99.90;;;;;;5107223;28;20207;-59
2022/05/23 02:09:05;;;;;;;8.40;3.00;;;13.50;99.90;;;;;;5105924;27;20212;-59
2022/05/23 02:11:31;;;;;;;7.73;3.30;;;13.40;99.90;;;;;;5110418;28;20209;-59
2022/05/23 02:13:56;;;;;;;7.30;3.20;;;13.40;99.90;;;;;;5108849;27;20588;-60
2022/05/23 02:16:23;;;;;;;6.13;3.30;;;13.40;99.90;;;;;;5104086;28;20173;-60
2022/05/23 02:18:49;;;;;;;3.67;3.30;;;13.40;99.90;;;;;;5103262;28;20176;-59
2022/05/23 02:21:16;;;;;;;3.87;3.10;;;13.40;99.90;;;;;;5107791;28;20447;-60
2022/05/23 02:23:42;;;;;;;3.00;2.80;;;13.40;99.90;;;;;;5107294;28;20209;-59
2022/05/23 02:26:08;;;;;;;4.40;2.73;;;13.40;99.90;;;;;;5081901;28;20572;-60
2022/05/23 02:28:33;;;;;;;3.23;2.93;;;13.40;99.90;;;;;;5109271;27;20771;-59
2022/05/23 02:30:59;;;;;;;7.83;2.90;;;13.30;99.90;;;;;;5103679;28;20507;-60
2022/05/23 02:33:25;;;;;;;4.00;3.13;;;13.30;99.90;;;;;;5108513;28;20202;-58
2022/05/23 02:35:50;;;;;;;3.30;3.00;;;13.30;99.90;;;;;;5107735;27;20218;-60
2022/05/23 02:38:16;;;;;;;5.23;3.10;;;13.30;99.90;;;;;;5114283;27;20552;-60
2022/05/23 02:40:42;;;;;;;3.17;2.87;;;13.30;99.90;;;;;;5107063;28;20196;-59
2022/05/23 02:43:07;;;;;;;7.40;2.90;;;13.30;99.90;;;;;;5106095;28;20203;-59
2022/05/23 02:45:33;;;;;;;3.10;2.77;;;13.30;99.90;;;;;;5092615;28;20180;-60
2022/05/23 02:47:59;;;;;;;3.30;3.00;;;13.30;99.90;;;;;;5105353;28;20200;-59
2022/05/23 02:50:24;;;;;;;2.93;2.73;;;13.30;99.90;;;;;;5107837;28;20209;-60
2022/05/23 02:52:50;;;;;;;3.03;2.83;;;13.30;99.90;;;;;;5108730;27;20280;-60
2022/05/23 02:55:16;;;;;;;4.37;3.40;;;13.30;99.90;;;;;;5099618;28;20234;-59
2022/05/23 02:57:41;;;;;;;7.93;3.10;;;13.30;99.90;;;;;;5107971;28;20783;-59
2022/05/23 03:00:08;;;;;;;5.60;3.40;;;13.30;99.90;;;;;;5108249;27;20185;-59
2022/05/23 03:05:19;;;;;;;3.40;3.10;;;13.30;99.90;;;;;;5108708;28;20484;-60
2022/05/23 03:07:45;;;;;;;3.50;3.20;;;13.20;99.90;;;;;;5110791;28;20966;-60
2022/05/23 03:10:11;;;;;;;4.60;3.10;;;13.20;99.90;;;;;;5108898;27;20913;-59
2022/05/23 03:12:37;;;;;;;3.27;2.97;;;13.20;99.90;;;;;;5108064;28;20954;-59
2022/05/23 03:15:05;;;;;;;3.80;3.10;;;13.30;99.90;;;;;;5106466;27;20446;-59
2022/05/23 03:17:31;;;;;;;4.73;3.27;;;13.30;99.90;;;;;;5097203;28;20197;-59
2022/05/23 03:19:57;;;;;;;5.53;3.53;;;13.30;99.90;;;;;;5107515;28;20461;-59
2022/05/23 03:27:52;;;;;;;4.30;3.20;;;13.30;99.90;;;;;;5105285;28;20455;-59
2022/05/23 03:30:18;;;;;;;6.03;3.00;;;13.30;99.90;;;;;;5114005;28;20897;-60
2022/05/23 03:32:43;;;;;;;4.40;3.00;;;13.30;99.90;;;;;;5090573;28;20564;-59
2022/05/23 03:35:09;;;;;;;3.47;3.00;;;13.30;99.90;;;;;;5113156;27;20171;-60
2022/05/23 03:37:35;;;;;;;6.20;3.10;;;13.30;99.90;;;;;;5117069;27;20188;-59
2022/05/23 03:40:05;;;;;;;3.13;2.93;;;13.30;99.90;;;;;;5110402;28;20239;-61
2022/05/23 03:42:31;;;;;;;4.50;2.97;;;13.30;99.90;;;;;;5113204;28;20420;-60
2022/05/23 03:44:57;;;;;;;4.93;3.20;;;13.40;99.90;;;;;;5096623;28;20510;-60
2022/05/23 03:47:22;;;;;;;3.17;2.97;;;13.40;99.90;;;;;;5110827;27;20774;-61
2022/05/23 03:49:48;;;;;;;8.47;3.23;;;13.40;99.90;;;;;;5111657;28;20173;-59
2022/05/23 03:52:14;;;;;;;4.73;3.27;;;13.40;99.90;;;;;;5099323;28;20708;-57
2022/05/23 03:54:40;;;;;;;4.40;3.13;;;13.50;99.90;;;;;;5103402;27;20197;-59
2022/05/23 03:57:06;;;;;;;4.53;3.10;;;13.40;99.90;;;;;;5105508;28;20894;-58
2022/05/23 03:59:32;;;;;;;7.47;3.50;;;13.50;99.90;;;;;;5104415;28;20538;-57
2022/05/23 04:01:58;;;;;;;4.60;3.47;;;13.50;99.90;;;;;;5102225;28;20561;-60
2022/05/23 04:04:28;;;;;;;4.97;3.10;;;13.50;99.90;;;;;;5104559;27;20970;-60
2022/05/23 04:07:05;;;;;;;4.20;2.80;;;13.50;99.90;;;;;;5107448;28;20431;-56
2022/05/23 04:09:31;;;;;;;7.70;3.57;;;13.40;99.90;;;;;;5090503;28;20537;-56
2022/05/23 04:11:58;;;;;;;4.47;3.47;;;13.40;99.90;;;;;;5105714;28;20511;-56
2022/05/23 04:14:25;;;;;;;7.47;4.33;;;13.40;99.90;;;;;;5108189;27;20449;-56
2022/05/23 04:16:52;;;;;;;4.40;4.00;;;13.50;99.90;;;;;;5098591;27;20476;-56
2022/05/23 04:19:18;;;;;;;5.20;4.30;;;13.50;99.90;;;;;;5101503;28;20489;-57
2022/05/23 04:21:45;;;;;;;5.67;4.50;;;13.60;99.90;;;;;;5099678;27;22759;-59
2022/05/23 04:24:13;;;;;;;5.07;4.57;;;13.70;99.90;;;;;;5103418;27;20462;-60
2022/05/23 04:26:38;;;;;;;6.73;3.53;;;13.70;99.90;;;;;;5106229;27;20459;-58
2022/05/23 04:29:08;;;;;;;3.60;3.30;;;13.80;99.90;;;;;;5100989;27;20436;-60
2022/05/23 04:31:35;;;;;;;6.57;3.47;;;13.80;99.90;;;;;;5106063;28;20283;-58
2022/05/23 04:36:47;;;;;;;3.60;3.30;;;13.70;99.90;;;;;;5104504;27;20533;-61
2022/05/23 04:39:12;;;;;;;5.07;4.10;;;13.70;99.90;;;;;;5089187;28;20792;-62
2022/05/23 04:41:38;;;;;;;4.13;3.73;;;13.70;99.90;;;;;;5103293;27;20426;-60
2022/05/23 04:44:04;;;;;;;9.63;3.70;;;13.80;99.90;;;;;;5099050;27;20212;-61
2022/05/23 04:46:30;;;;;;;4.77;4.03;;;13.80;99.90;;;;;;5101400;27;20185;-61
2022/05/23 04:51:40;;;;;;;4.30;3.63;;;13.80;99.90;;;;;;5092690;28;20208;-60
2022/05/23 04:54:07;;;;;;;4.93;4.07;;;13.80;99.90;;;;;;5107847;27;20431;-60
2022/05/23 04:56:33;;;;;;;7.03;4.50;;;13.90;99.90;;;;;;5106041;28;20489;-60
2022/05/23 04:58:59;;;;;;;4.27;3.87;;;13.90;99.90;;;;;;5103660;28;20460;-60
2022/05/23 05:01:26;;;;;;;6.53;4.00;;;13.90;99.90;;;;;;5107179;28;20426;-60
2022/05/23 05:03:57;;;;;;;4.97;4.40;;;13.90;99.90;;;;;;5104190;28;20493;-61
2022/05/23 05:06:24;;;;;;;6.07;4.43;;;14.00;99.90;;;;;;5100418;28;20471;-59
2022/05/23 05:08:50;;;;;;;9.43;4.20;;;14.00;99.90;;;;;;5108276;28;20440;-58
2022/05/23 05:11:16;;;;;;;6.23;4.37;;;14.10;99.90;;;;;;5108563;28;20792;-58
2022/05/23 05:13:43;;;;;;;13.37;4.27;;;14.10;99.90;;;;;;5107383;28;21042;-58
2022/05/23 05:16:09;;;;;;;6.17;5.23;;;14.20;99.90;;;;;;5090277;28;22680;-59
2022/05/23 05:18:35;;;;;;;6.93;4.90;;;14.20;99.90;;;;;;5111272;28;20476;-58
2022/05/23 05:21:09;;;;;;;7.07;4.77;;;14.20;99.90;;;;;;5110384;28;20242;-58
2022/05/23 05:23:35;;;;;;;9.33;4.87;;;14.30;99.90;;;;;;5109773;28;20446;-58
2022/05/23 05:26:02;;;;;;;7.57;5.07;;;14.30;99.90;;;;;;5083576;28;20823;-57
2022/05/23 05:28:28;;;;;;;4.90;3.97;;;14.30;99.90;;;;;;5109542;28;20188;-58
2022/05/23 05:31:01;;;;;;;7.70;4.20;;;14.30;99.90;;;;;;5110161;28;20989;-58
2022/05/23 05:33:35;;;;;;;5.90;4.57;;;14.40;99.90;;;;;;5078027;28;20494;-58
2022/05/23 05:36:06;;;;;;;8.50;4.87;;;14.40;99.90;;;;;;5104370;28;20418;-58
2022/05/23 05:38:42;;;;;;;7.03;4.33;;;14.40;99.90;;;;;;5118852;27;20395;-58
2022/05/23 05:41:17;;;;;;;14.07;5.00;;;14.50;99.90;;;;;;5111119;28;20942;-58
2022/05/23 05:43:51;;;;;;;8.00;5.67;;;14.50;99.90;;;;;;5106753;28;20450;-59
2022/05/23 05:46:31;;;;;;;7.73;4.80;;;14.50;99.90;;;;;;5103679;28;20501;-58
2022/05/23 05:49:01;;;;;;;7.67;5.50;;;14.50;99.90;;;;;;5104849;28;20465;-57
2022/05/23 05:51:28;;;;;;;5.67;5.03;;;14.50;99.90;;;;;;5109236;28;20458;-58
2022/05/23 05:53:54;;;;;;;6.50;4.90;;;14.50;99.90;;;;;;5105640;28;20454;-57
2022/05/23 05:56:20;;;;;;;9.10;5.97;;;14.50;99.90;;;;;;5109960;28;20423;-58
2022/05/23 05:58:46;;;;;;;10.10;5.70;;;14.50;99.90;;;;;;5108628;28;20181;-58
2022/05/23 06:01:12;;;;;;;6.50;5.17;;;14.60;99.90;;;;;;5108764;28;20480;-57
2022/05/23 06:03:39;;;;;;;8.57;5.23;;;14.60;99.90;;;;;;5109359;27;20450;-59
2022/05/23 06:11:34;;;;;;;10.03;5.40;;;14.90;99.90;;;;;;5093138;28;20454;-58
2022/05/23 06:14:03;;;;;;;5.40;4.90;;;15.00;99.90;;;;;;5105596;28;20900;-58
2022/05/23 06:16:32;;;;;;;6.63;4.57;;;15.00;99.90;;;;;;5108739;28;20454;-58
2022/05/23 06:18:58;;;;;;;7.40;5.07;;;15.10;99.90;;;;;;5107080;28;20946;-58
2022/05/23 06:21:26;;;;;;;8.40;4.60;;;15.10;99.90;;;;;;5087342;28;20489;-57
2022/05/23 06:23:52;;;;;;;6.13;4.40;;;15.20;99.90;;;;;;5096324;28;20565;-56
2022/05/23 06:26:21;;;;;;;7.87;4.13;;;15.30;99.90;;;;;;5096871;28;20515;-58
2022/05/23 06:28:48;;;;;;;3.90;3.50;;;15.40;99.90;;;;;;5107818;28;20491;-58
2022/05/23 06:31:15;;;;;;;5.13;4.00;;;15.40;99.90;;;;;;5108776;28;20423;-58
2022/05/23 06:33:41;;;;;;;5.40;3.90;;;15.50;99.90;;;;;;5109727;28;20469;-58
2022/05/23 06:36:08;;;;;;;7.67;4.40;;;15.60;99.90;;;;;;5099257;28;20452;-59
2022/05/23 06:38:36;;;;;;;6.97;4.33;;;15.70;99.90;;;;;;5109795;28;20675;-58
2022/05/23 06:41:03;;;;;;;7.40;5.87;;;15.80;99.90;;;;;;5102438;27;20822;-58
2022/05/23 06:43:30;;;;;;;11.00;7.37;;;15.90;99.90;;;;;;5101727;28;20453;-58
2022/05/23 06:45:56;;;;;;;10.50;6.37;;;16.00;99.90;;;;;;5107326;28;20461;-58
2022/05/23 06:48:23;;;;;;;10.20;6.90;;;16.10;99.90;;;;;;5095042;27;20426;-59
2022/05/23 06:50:50;;;;;;;9.37;5.83;;;16.30;99.90;;;;;;5092332;28;20467;-58
2022/05/23 06:53:19;;;;;;;9.43;5.90;;;16.30;99.90;;;;;;5109210;28;20462;-58
2022/05/23 06:55:45;;;;;;;12.67;6.13;;;16.40;99.90;;;;;;5108720;28;20427;-59
2022/05/23 06:58:11;;;;;;;10.73;5.57;;;16.40;99.90;;;;;;5096767;28;20449;-58
2022/05/23 07:00:37;;;;;;;11.63;6.00;;;16.50;99.90;;;;;;5100651;28;20181;-58
2022/05/23 07:03:03;;;;;;;6.53;5.67;;;16.60;99.90;;;;;;5105763;28;20169;-58
2022/05/23 07:13:43;;;;;;;12.37;6.77;;;17.30;98.20;;;;;;5107063;28;20492;-59
2022/05/23 07:16:09;;;;;;;9.67;5.50;;;17.40;97.00;;;;;;5094169;28;20931;-58
2022/05/23 07:18:37;;;;;;;11.30;5.10;;;17.60;95.80;;;;;;5108888;28;20261;-59
2022/05/23 07:21:07;;;;;;;9.17;5.10;;;17.70;94.50;;;;;;5104747;28;20445;-58
2022/05/23 07:23:35;;;;;;;6.33;5.00;;;17.80;90.00;;;;;;5101177;28;20451;-58
2022/05/23 07:26:03;;;;;;;11.27;4.97;;;17.90;89.90;;;;;;5102352;28;20431;-58
2022/05/23 07:28:29;;;;;;;11.00;5.17;;;18.00;88.90;;;;;;5101149;28;20438;-58
2022/05/23 07:30:54;;;;;;;8.30;4.47;;;18.10;86.70;;;;;;5099086;28;20496;-59
2022/05/23 07:33:20;;;;;;;8.00;4.40;;;18.20;87.60;;;;;;5107126;28;20209;-57
2022/05/23 07:35:46;;;;;;;15.27;7.33;;;18.30;87.10;;;;;;5104009;28;20177;-58
2022/05/23 07:38:12;;;;;;;15.70;7.00;;;18.50;86.90;;;;;;5098395;28;20212;-58
2022/05/23 07:40:38;;;;;;;9.90;5.17;;;18.50;91.10;;;;;;5100343;28;20454;-58
2022/05/23 07:43:03;;;;;;;4.87;4.10;;;18.60;92.10;;;;;;5095745;28;20236;-58
2022/05/23 07:45:29;;;;;;;7.57;3.80;;;18.70;89.70;;;;;;5096737;28;20189;-58
2022/05/23 07:47:54;;;;;;;4.93;4.13;;;18.90;86.40;;;;;;5096417;28;20234;-58
2022/05/23 07:50:21;;;;;;;9.33;4.47;;;19.00;80.40;;;;;;5092382;28;20177;-58
2022/05/23 08:01:01;;;;;;;15.53;3.90;;;19.30;71.30;;;;;;5100113;28;21037;-59
2022/05/23 08:03:27;;;;;;;6.23;3.73;;;19.40;71.70;;;;;;5097275;28;20545;-58
2022/05/23 08:05:53;;;;;;;5.20;3.60;;;19.40;71.00;;;;;;5099731;28;20423;-59
2022/05/23 08:08:18;;;;;;;6.10;3.67;;;19.60;69.60;;;;;;5100542;28;20273;-58
2022/05/23 08:10:44;;;;;;;5.20;3.40;;;19.70;68.10;;;;;;5099559;28;20891;-59
2022/05/23 08:13:10;;;;;;;7.03;4.03;;;19.70;68.00;;;;;;5095706;28;20209;-58
2022/05/23 08:15:39;;;;;;;8.60;3.93;;;19.70;66.70;;;;;;5095393;28;20200;-58
2022/05/23 08:18:06;;;;;;;11.83;3.50;;;19.80;66.10;;;;;;5097860;28;20184;-58
2022/05/23 08:20:32;;;;;;;6.07;3.43;;;19.80;66.10;;;;;;5098329;28;21164;-58
2022/05/23 08:22:59;;;;;;;4.83;3.60;;;20.00;68.00;;;;;;5100443;28;20472;-58
2022/05/23 08:25:25;;;;;;;4.23;3.63;;;20.10;68.40;;;;;;5100756;28;20454;-58
2022/05/23 08:27:53;;;;;;;8.53;3.67;;;20.10;67.60;;;;;;5102312;28;20441;-58
2022/05/23 08:30:19;;;;;;;4.40;3.20;;;20.20;67.10;;;;;;5095771;28;20535;-58
2022/05/23 08:32:46;;;;;;;14.00;4.10;;;20.20;67.00;;;;;;5100777;28;20832;-57
2022/05/23 08:35:13;;;;;;;5.20;3.70;;;20.30;67.50;;;;;;5101559;28;20466;-58
2022/05/23 08:37:39;;;;;;;4.67;3.40;;;20.50;66.80;;;;;;5107332;27;20459;-58
2022/05/23 08:40:06;;;;;;;4.33;3.77;;;20.60;67.00;;;;;;5102434;28;20462;-58
2022/05/23 08:42:56;;;;;;;7.10;3.83;;;20.70;65.40;;;;;;5105698;27;20173;-58
2022/05/23 08:45:25;;;;;;;4.77;3.80;;;20.80;65.60;;;;;;5094755;28;20442;-58
2022/05/23 08:48:23;;;;;;;8.93;3.80;;;20.80;65.60;;;;;;5102805;28;20433;-59
2022/05/23 08:51:02;;;;;;;4.53;3.57;;;20.80;65.60;;;;;;5099854;28;20434;-58
2022/05/23 08:53:34;;;;;;;13.23;4.70;;;20.80;65.00;;;;;;5105092;28;20472;-58
2022/05/23 08:56:12;;;;;;;5.63;4.20;;;20.80;66.00;;;;;;5108060;28;20408;-58
2022/05/23 08:58:46;;;;;;;5.07;3.50;;;20.80;67.30;;;;;;5109410;28;20448;-58
2022/05/23 09:01:16;;;;;;;11.27;4.40;;;20.80;67.90;;;;;;5090167;28;20427;-58
2022/05/23 09:04:08;;;;;;;9.20;4.50;;;20.80;69.10;;;;;;5107652;28;20489;-59
2022/05/23 09:06:48;;;;;;;10.50;4.53;;;20.90;68.80;;;;;;5107365;28;20434;-58
2022/05/23 09:09:20;;;;;;;11.03;4.80;;;21.20;69.70;;;;;;5108169;28;20519;-59
2022/05/23 09:12:02;;;;;;;6.60;3.83;;;21.40;70.30;;;;;;5102995;28;20477;-59
2022/05/23 09:14:28;;;;;;;6.37;4.67;;;21.60;70.10;;;;;;5101104;28;20475;-59
2022/05/23 09:16:57;;;;;;;6.73;4.00;;;21.80;70.70;;;;;;5100668;28;20423;-58
2022/05/23 09:19:34;;;;;;;6.47;4.23;;;22.00;69.30;;;;;;5104377;28;20888;-59
2022/05/23 09:22:12;;;;;;;5.10;4.07;;;22.30;69.00;;;;;;5106341;28;20541;-58
2022/05/23 09:24:43;;;;;;;12.50;4.80;;;22.60;68.10;;;;;;5107917;28;20435;-58
2022/05/23 09:27:17;;;;;;;7.37;4.23;;;22.80;67.90;;;;;;5109018;28;20430;-58
2022/05/23 09:29:45;;;;;;;6.17;4.10;;;22.90;65.10;;;;;;5105841;28;20810;-58
2022/05/23 09:32:17;;;;;;;5.70;4.43;;;22.90;64.60;;;;;;5103170;28;20455;-58
2022/05/23 09:34:55;;;;;;;8.30;4.20;;;22.80;65.10;;;;;;5104970;27;20928;-57
2022/05/23 09:37:23;;;;;;;4.40;4.00;;;22.80;65.10;;;;;;5099874;28;20460;-58
2022/05/23 09:39:55;;;;;;;8.40;4.10;;;22.70;64.70;;;;;;5100817;28;20460;-59
2022/05/23 09:48:16;;;;;;;5.00;4.27;;;22.60;65.50;;;;;;5098395;28;20545;-58
2022/05/23 09:50:45;;;;;;;12.63;4.80;;;22.60;66.20;;;;;;5096849;28;20438;-55
2022/05/23 09:53:57;;;;;;;9.10;4.57;;;22.60;65.40;;;;;;5101030;28;20463;-61
2022/05/23 09:56:34;;;;;;;6.70;4.70;;;22.40;66.10;;;;;;5066155;28;20570;-59
2022/05/23 09:59:04;;;;;;;8.83;5.10;;;22.20;66.10;;;;;;5101087;28;20438;-60
2022/05/23 10:01:32;;;;;;;11.63;5.03;;;22.00;65.90;;;;;;5104928;27;20431;-59
2022/05/23 10:03:58;;;;;;;12.50;4.53;;;21.70;66.10;;;;;;5103803;28;20462;-59
2022/05/23 10:06:37;;;;;;;8.30;4.93;;;21.60;67.00;;;;;;5099953;28;20434;-60
2022/05/23 10:09:07;;;;;;;6.20;4.23;;;21.40;68.40;;;;;;5101041;28;20232;-59
2022/05/23 10:11:36;;;;;;;9.27;4.50;;;21.30;70.00;;;;;;5109138;28;20466;-59
2022/05/23 10:14:05;;;;;;;6.53;4.37;;;21.20;71.90;;;;;;5104857;28;20442;-61
2022/05/23 10:16:47;;;;;;;13.43;4.63;;;21.20;73.60;;;;;;5104219;28;20454;-60
2022/05/23 10:19:32;;;;;;;13.27;5.43;;;21.10;74.30;;;;;;5105226;28;20423;-60
2022/05/23 10:22:17;;;;;;;10.20;4.80;;;21.00;75.80;;;;;;5106790;28;20837;-61
2022/05/23 10:25:12;;;;;;;9.33;4.63;;;20.90;76.70;;;;;;5102633;28;21044;-59
2022/05/23 10:28:07;;;;;;;16.47;5.53;;;20.80;77.90;;;;;;5087386;28;20438;-61
2022/05/23 10:30:36;;;;;;;11.70;5.73;;;20.70;75.90;;;;;;5094737;28;20427;-60
2022/05/23 10:33:13;;;;;;;17.20;6.27;;;20.70;75.00;;;;;;5104806;28;20451;-61
2022/05/23 10:36:00;;;;;;;14.80;6.27;;;20.60;77.40;;;;;;5103665;28;20469;-59
2022/05/23 10:44:29;;;;;;;9.70;4.63;;;19.80;96.30;;;;;;5103428;27;20511;-60
2022/05/23 10:47:17;;;;;;;6.67;3.90;;;19.30;99.90;;;;;;5103970;27;20495;-61
2022/05/23 10:50:09;;;;;;;4.47;3.00;;;18.90;99.90;;;;;;5101806;28;20446;-60
2022/05/23 10:52:52;;;;;;;6.00;3.37;;;18.60;99.90;;;;;;5073559;27;20467;-60
2022/05/23 10:55:39;;;;;;;7.37;2.40;;;18.30;99.90;;;;;;5103589;27;20442;-60
2022/05/23 10:58:17;;;;;;;6.60;2.77;;;18.10;99.90;;;;;;5103501;28;20443;-60
2022/05/23 11:01:19;;;;;;;4.07;3.00;;;18.00;99.90;;;;;;5099568;28;20442;-60
2022/05/23 11:04:04;;;;;;;4.63;2.10;;;17.90;99.90;;;;;;5100814;28;20445;-61
2022/05/23 11:07:07;;;;;;;8.47;2.80;;;17.80;99.90;;;;;;5101296;28;20527;-63
2022/05/23 11:09:47;;;;;;;9.53;2.87;;;17.80;99.90;;;;;;5100414;28;20943;-62
2022/05/23 11:12:40;;;;;;;9.27;2.80;;;17.70;99.90;;;;;;5083234;28;20557;-62
2022/05/23 11:15:14;;;;;;;4.27;2.50;;;17.80;99.90;;;;;;5081371;28;20453;-60
2022/05/23 11:17:54;;;;;;;8.83;3.00;;;17.90;99.90;;;;;;5097224;28;20429;-59
2022/05/23 11:20:26;;;;;;;10.73;2.87;;;18.10;99.90;;;;;;5095450;28;20564;-62
2022/05/23 11:23:21;;;;;;;9.30;2.80;;;18.30;99.90;;;;;;5081671;28;20531;-61
2022/05/23 11:25:51;;;;;;;6.20;2.60;;;18.50;99.90;;;;;;5086385;28;20796;-61
2022/05/23 11:34:00;;;;;;;25.07;3.37;;;19.10;99.90;;;;;;5099291;28;20446;-64
2022/05/23 11:36:56;;;;;;;4.83;2.47;;;19.20;99.90;;;;;;5104187;28;20429;-61
2022/05/23 11:39:50;;;;;;;8.47;3.23;;;19.40;99.90;;;;;;5104234;28;20427;-61
2022/05/23 11:42:22;;;;;;;9.13;2.83;;;19.50;99.90;;;;;;5081312;28;20513;-56
2022/05/23 11:44:50;;;;;;;7.47;3.30;;;19.60;98.30;;;;;;5097396;28;20451;-58
2022/05/23 11:47:27;;;;;;;12.53;2.87;;;19.70;97.70;;;;;;5100822;28;20434;-56
2022/05/23 11:50:15;;;;;;;6.80;3.20;;;19.90;98.60;;;;;;5097163;28;20430;-58
2022/05/23 11:52:47;;;;;;;8.57;3.27;;;20.10;98.00;;;;;;5098739;28;20587;-62
2022/05/23 11:55:50;;;;;;;9.73;2.93;;;20.20;94.80;;;;;;5102108;28;20789;-62
2022/05/23 11:58:31;;;;;;;7.10;2.53;;;20.30;87.50;;;;;;5106446;28;20419;-62
2022/05/23 12:01:11;;;;;;;6.00;2.60;;;20.40;86.80;;;;;;5100354;27;20422;-62
2022/05/23 12:03:52;;;;;;;5.33;2.87;;;20.70;84.80;;;;;;5084453;28;20479;-62
2022/05/23 12:06:23;;;;;;;6.80;2.67;;;21.10;91.60;;;;;;5102508;27;20426;-62
2022/05/23 12:09:06;;;;;;;5.10;2.90;;;21.50;81.00;;;;;;5103047;27;20753;-63
2022/05/23 12:11:35;;;;;;;6.80;3.77;;;21.90;86.40;;;;;;5083276;27;20441;-61
2022/05/23 12:14:28;;;;;;;8.77;3.80;;;22.20;78.40;;;;;;5093584;27;22689;-61
2022/05/23 12:16:57;;;;;;;7.33;2.83;;;22.50;76.20;;;;;;5106204;28;20899;-61
2022/05/23 12:19:32;;;;;;;6.53;3.17;;;22.80;79.10;;;;;;5104294;28;21238;-62
2022/05/23 12:22:28;;;;;;;9.73;3.40;;;23.20;76.90;;;;;;5097378;27;21017;-61
2022/05/23 12:25:09;;;;;;;6.67;2.70;;;23.60;74.70;;;;;;5077694;27;20790;-61
2022/05/23 12:27:44;;;;;;;12.80;2.77;;;23.70;65.90;;;;;;5108097;28;20764;-61
2022/05/23 12:30:24;;;;;;;9.83;3.47;;;23.80;64.70;;;;;;5101478;28;20419;-60
2022/05/23 12:32:58;;;;;;;6.97;2.83;;;23.90;66.00;;;;;;5101174;28;20524;-60
2022/05/23 12:35:30;;;;;;;15.13;3.50;;;24.10;67.10;;;;;;5106385;27;20623;-60
2022/05/23 12:38:16;;;;;;;11.80;3.03;;;24.40;65.20;;;;;;5105203;28;20519;-59
2022/05/23 12:41:16;;;;;;;4.80;2.60;;;24.60;62.80;;;;;;5101882;28;20438;-61
2022/05/23 12:44:14;;;;;;;7.63;2.70;;;24.70;60.50;;;;;;5096435;28;20542;-60
2022/05/23 12:47:24;;;;;;;6.33;3.23;;;24.90;58.50;;;;;;5101207;28;20493;-59
2022/05/23 12:50:06;;;;;;;7.50;2.63;;;25.20;60.70;;;;;;5087970;28;20422;-60
2022/05/23 12:52:31;;;;;;;10.10;3.10;;;25.40;58.50;;;;;;5103087;28;20462;-61
2022/05/23 12:55:34;;;;;;;7.37;2.80;;;25.40;56.10;;;;;;5106384;28;20488;-60
2022/05/23 12:58:25;;;;;;;11.70;2.97;;;25.60;57.40;;;;;;5103434;27;20212;-61
2022/05/23 13:00:59;;;;;;;11.20;2.90;;;25.80;53.50;;;;;;5097562;28;20430;-61
2022/05/23 13:03:40;;;;;;;10.73;3.20;;;25.90;54.50;;;;;;5080420;28;20511;-60
2022/05/23 13:06:23;;;;;;;7.13;2.83;;;26.10;53.00;;;;;;5097622;27;20629;-60
2022/05/23 13:08:54;;;;;;;7.20;2.70;;;26.20;50.90;;;;;;5080306;28;20837;-55
2022/05/23 13:11:29;;;;;;;9.43;3.17;;;26.20;50.70;;;;;;5104195;28;20422;-54
2022/05/23 13:13:58;;;;;;;16.20;3.47;;;26.30;52.40;;;;;;5083638;28;20937;-60
2022/05/23 13:16:25;;;;;;;9.60;3.80;;;26.50;52.00;;;;;;5102889;27;20857;-60
2022/05/23 13:27:11;;;;;;;9.13;2.87;;;27.20;50.50;;;;;;5102728;27;20429;-62
2022/05/23 13:29:37;;;;;;;6.30;2.53;;;27.40;49.20;;;;;;5101978;28;21286;-62
2022/05/23 13:32:07;;;;;;;7.60;3.20;;;27.20;46.60;;;;;;5103809;27;20977;-59
2022/05/23 13:34:39;;;;;;;5.70;2.47;;;26.80;47.20;;;;;;5104019;28;20194;-60
2022/05/23 13:37:06;;;;;;;7.70;2.97;;;26.50;48.10;;;;;;5100594;28;20427;-59
2022/05/23 13:39:42;;;;;;;7.13;3.27;;;26.30;49.00;;;;;;5107788;28;20466;-61
2022/05/23 13:42:30;;;;;;;8.43;2.97;;;26.30;49.10;;;;;;5102258;28;22112;-61
2022/05/23 13:45:16;;;;;;;8.53;3.13;;;26.40;49.10;;;;;;5098865;28;21090;-61
2022/05/23 13:47:50;;;;;;;7.13;3.50;;;26.50;48.90;;;;;;5101007;28;21660;-62
2022/05/23 13:50:24;;;;;;;11.17;2.70;;;26.70;48.60;;;;;;5087059;28;21006;-62
2022/05/23 13:52:59;;;;;;;4.53;2.90;;;26.90;47.10;;;;;;5100552;28;20553;-60
2022/05/23 13:55:34;;;;;;;7.67;3.33;;;26.90;47.00;;;;;;5103961;27;20422;-62
2022/05/23 13:58:07;;;;;;;8.13;4.30;;;26.90;48.50;;;;;;5102993;28;20908;-62
2022/05/23 14:00:39;;;;;;;9.20;2.90;;;26.80;48.00;;;;;;5105169;28;20504;-60
2022/05/23 14:03:16;;;;;;;9.83;3.20;;;26.70;48.50;;;;;;5106626;27;20430;-59
2022/05/23 14:05:45;;;;;;;11.27;3.50;;;26.40;48.90;;;;;;5100797;27;20426;-60
2022/05/23 14:08:15;;;;;;;6.30;3.23;;;26.10;49.50;;;;;;5107636;27;20426;-60
2022/05/23 14:10:44;;;;;;;8.70;3.13;;;25.80;50.40;;;;;;5080980;28;20426;-60
2022/05/23 14:13:12;;;;;;;8.90;3.50;;;25.60;50.50;;;;;;5095103;27;20853;-60
2022/05/23 14:15:38;;;;;;;7.60;3.03;;;25.40;49.60;;;;;;5097133;28;20423;-60
2022/05/23 14:18:13;;;;;;;5.90;2.70;;;25.00;49.90;;;;;;5097130;27;20456;-60